Airfield :
LOGIN :

Register | Disclaimer

   EN    FR    IT 

 










Legend :    VFR   Marginal VFR   IFR   Intensive IFR   Very Intensive IFR
Visi :
Ceiling :
>= 8 km
>= 3000ft
5 to 8 km
1000 to 3000 ft
1500m to 5 km
500 to 1000 ft
800 to 1500m
200 to 500 ft
< 800m
< 200 ft
Symbols :   Thunderstorms  Fog  Heavy snow  Heavy precipitations  Wind > 20 kt
SIGMETs :     Misc.  Thunderstorms  Icing  Turbulence  Mountain Waves  Volcanic Ashes







- Airport Elevation : 18 ft
- IATA code : AJA
- Download approach charts


LFKJ - Ajaccio

CURRENT METAR :
  • 170734Z VRB01KT CAVOK 29/11 Q1017 NOSIG

EXPIRED METARs :
  • 170700Z 03003KT CAVOK 26/11 Q1017 NOSIG
  • 170630Z 05005KT CAVOK 23/11 Q1017 NOSIG
  • 170600Z 05004KT CAVOK 22/11 Q1017 NOSIG
  • 170530Z 06003KT CAVOK 20/11 Q1017 NOSIG
  • 170500Z 05004KT CAVOK 20/10 Q1017 NOSIG

TAF TAF LFKJ
Valid from the 17 at 03:00 until the 18 at 03:00 UTC


170200Z 1703/1803 06003KT CAVOK
BECMG 1707/1710 24008KT
BECMG 1718/1721 VRB03KT
ATIS : +33 4 95 23 59 85
No reported NOTAMs for that airfield.



MET'MAP, your aeronautical weather chart ! - Copyright ORBIFLY December 2007 - Disclaimer

ORBIFLY MET'MAP TEAM :

Programming & Development : Alexandra Zaïnal
Concept & Development : Baudouin d'Aumeries
Co-Development & Prog : Marc-Olivier Méhu
Technical & hardware support : Manuel Goepfert

Contact : metmap@orbifly.com




SOURCES & CREDITS :

   NOAA